Cheat Lake, West Virginia
Current Conditions -  °F | °C
As of 3:53 AM on Monday 22 Dec 2014 (Local Time) from KMGW Reporting Station
Clear Clear  
Wind Chill: 29°   Ceiling: Unl
Heat Index: 33°   Visibility: 10mi
Dew Point: 22°   Wind: 5mph
Humidity: 64%   Direction: 100°E
Pressure: 30.11"   Gusts: NA
Location:  39.5891°N, 79.8946°W
Report Text: KMGW 220853Z AUTO 10004KT 10SM CLR 01/M06 A3011 RMK AO2 SLP207 T00061056 58013 TSNO
Loading
Personal Weather Stations






























Interactive Weather Map New forecast layout! Learn more

10-Day Weather Forecast

Advertisements
Track Severe Weather on mobile